Pittsburgh, PA (15226)

5:26 PM EST on February 05, 2016 (GMT -0500)
Brookline Twin Oak | | Change Station
CLOSE
Current Station
Personal Weather Station
Location: Pittsburgh, PA
Elevation: 1135 ft
Nearby Weather Stations

Elev 1135 ft 40.39 °N, 80.00 °W | Updated 1 second ago

Partly Cloudy
Partly Cloudy
34.5 °F
Feels Like 28 °F
N
7.6
Wind Variable Wind from South
Gusts 9.2 mph

Today
High -- | Low -- °F
--% Chance of Precip.
Yesterday
High -- | Low -- °F
Precip. -- in
Pressure 30.38 in
Visibility 10.0 miles
Clouds Clear
Windchill 28 °F
Dew Point 10 °F
Humidity 35%
Rainfall 0.00 in
Snow Depth Not available.
7:25 AM 5:42 PM
Waning Crescent, 9% visible
METAR KAGC 052153Z 32007KT 280V350 10SM CLR 02/M09 A3032 RMK AO2 SLP287 T00221089
Pressure 30.38 in
Visibility 10.0 miles
Clouds Clear
Windchill 28 °F
Dew Point 10 °F
Humidity 35%
Rainfall 0.00 in
Snow Depth Not available.
7:25 AM 5:42 PM
Waning Crescent, 9% visible
METAR KAGC 052153Z 32007KT 280V350 10SM CLR 02/M09 A3032 RMK AO2 SLP287 T00221089

10-Day Weather Forecast

Almanac

Astronomy

Feb. 05, 2016 Rise Set
Actual Time
Civil Twilight
Nautical Twilight
Astronomical Twilight
Moon
Length of Visible Light
Length of Day
Tomorrow will be .
, % of the Moon is Illuminated

Today's Extremes

State Highs State Lows

Community

WunderPhotos

Upload Photos

1,890,878 photos uploaded!

WunderBlog® & News

Nearby

Air Quality

  Air Quality AQ Index Pollutant
Not available.

Snow Depth

Station Depth Elevation

Earthquake Activity

City Distance Mag. Time & Date
Minimum magnitude displayed is 2.5.

Coastal Water Temperatures

Place Temperature

Stations

Nearby Weather Stations

Station Location Temp. Windchill Dew Point Humidity Wind Precip. Elev Updated Type
                   

Watches & Warnings

There are currently no watches in effect.